Time;durP1;ratioP1;P1;durP2;ratioP2;P2;SDS_P1;SDS_P2;PMS_P1;PMS_P2;Temp;Humidity;BMP_temperature;BMP_pressure;BME280_temperature;BME280_humidity;BME280_pressure;Samples;Min_cycle;Max_cycle;Signal;HPM_P1;HPM_P2
2022/10/21 00:01:10;;;;;;;3.02;1.55;;;;;;;21.02;37.57;101979.16;1680945;84;21070;-90
2022/10/21 00:03:37;;;;;;;3.40;1.50;;;;;;;21.00;37.55;101979.48;1700989;83;21094;-91
2022/10/21 00:06:03;;;;;;;2.70;1.45;;;;;;;21.01;37.53;101978.34;1701099;84;21105;-90
2022/10/21 00:08:30;;;;;;;3.45;2.08;;;;;;;21.01;37.51;101983.04;1700821;83;21149;-91
2022/10/21 00:10:59;;;;;;;3.62;1.60;;;;;;;21.01;37.51;101978.89;1701131;83;21050;-90
2022/10/21 00:13:32;;;;;;;4.10;1.50;;;;;;;21.00;37.49;101978.65;1701032;82;21055;-90
2022/10/21 00:16:09;;;;;;;3.55;1.57;;;;;;;20.99;37.49;101976.44;1700918;83;21600;-91
2022/10/21 00:18:36;;;;;;;2.72;1.42;;;;;;;20.99;37.47;101984.73;1701129;83;21027;-91
2022/10/21 00:21:12;;;;;;;2.72;1.60;;;;;;;20.99;37.46;101976.44;1700939;83;21183;-91
2022/10/21 00:23:38;;;;;;;3.15;1.50;;;;;;;20.97;37.44;101978.10;1700916;83;21105;-90
2022/10/21 00:26:05;;;;;;;4.10;1.60;;;;;;;20.97;37.41;101975.34;1700916;83;20991;-93
2022/10/21 00:28:37;;;;;;;3.35;1.50;;;;;;;20.98;37.40;101974.22;1681773;84;21058;-91
2022/10/21 00:31:06;;;;;;;3.70;1.70;;;;;;;20.96;37.39;101975.64;1681303;84;21089;-90
2022/10/21 00:33:33;;;;;;;2.52;1.50;;;;;;;20.97;37.37;101979.48;1701081;83;21120;-91
2022/10/21 00:36:01;;;;;;;1.72;1.22;;;;;;;20.97;37.36;101977.27;1701071;82;21054;-91
2022/10/21 00:38:29;;;;;;;2.22;1.25;;;;;;;20.96;37.34;101973.67;1701072;83;21117;-91
2022/10/21 00:40:56;;;;;;;3.08;1.45;;;;;;;20.96;37.33;101965.37;1700679;83;21050;-91
2022/10/21 00:43:22;;;;;;;3.90;1.40;;;;;;;20.97;37.31;101966.20;1681285;84;21035;-91
2022/10/21 00:45:51;;;;;;;4.97;1.55;;;;;;;20.95;37.29;101965.69;1701117;83;21043;-90
2022/10/21 00:48:43;;;;;;;2.80;1.50;;;;;;;20.95;37.28;101961.54;1700838;83;21488;-91
2022/10/21 00:51:15;;;;;;;3.85;1.70;;;;;;;20.95;37.27;101964.30;1699942;83;21545;-91
2022/10/21 00:53:44;;;;;;;2.65;1.47;;;;;;;20.94;37.25;101953.80;1700913;83;21445;-91
2022/10/21 00:56:19;;;;;;;3.02;1.27;;;;;;;20.94;37.24;101946.05;1702852;83;21128;-91
2022/10/21 00:58:46;;;;;;;3.58;1.50;;;;;;;20.93;37.24;101941.07;1703120;82;21104;-90
2022/10/21 01:01:13;;;;;;;2.92;1.27;;;;;;;20.94;37.22;101950.20;1703383;82;21461;-90
2022/10/21 01:03:39;;;;;;;2.70;1.45;;;;;;;20.93;37.20;101962.37;1703357;82;21030;-89
2022/10/21 01:06:08;;;;;;;2.33;1.20;;;;;;;20.92;37.19;101962.93;1681639;83;21065;-91
2022/10/21 01:08:34;;;;;;;3.15;1.50;;;;;;;20.92;37.19;101957.39;1703365;82;21778;-91
2022/10/21 01:11:01;;;;;;;2.75;1.30;;;;;;;20.93;37.18;101959.61;1703397;82;21193;-91
2022/10/21 01:14:11;;;;;;;3.17;1.62;;;;;;;20.92;37.18;101949.66;1702997;82;20990;-91
2022/10/21 01:17:06;;;;;;;2.02;1.30;;;;;;;20.92;37.16;101951.86;1703177;82;21114;-91
2022/10/21 01:19:57;;;;;;;2.95;1.42;;;;;;;20.90;37.15;101952.73;1702819;82;21045;-92
2022/10/21 01:23:05;;;;;;;2.45;1.30;;;;;;;20.90;37.13;101962.41;1703294;82;21121;-90
2022/10/21 01:25:56;;;;;;;2.85;1.60;;;;;;;20.89;37.10;101953.84;1702926;82;21107;-90
2022/10/21 01:28:54;;;;;;;3.33;1.50;;;;;;;20.88;37.11;101940.29;1703709;82;21015;-90
2022/10/21 01:31:43;;;;;;;2.37;1.07;;;;;;;20.87;37.10;101933.13;1703102;82;21059;-90
2022/10/21 01:34:23;;;;;;;2.70;1.30;;;;;;;20.87;37.11;101942.26;1703218;83;21074;-91
2022/10/21 01:37:19;;;;;;;3.25;1.20;;;;;;;20.86;37.12;101936.45;1703086;83;21082;-91
2022/10/21 01:39:54;;;;;;;3.22;1.35;;;;;;;20.86;37.11;101937.84;1703086;83;21233;-91
2022/10/21 01:42:36;;;;;;;3.25;1.40;;;;;;;20.85;37.10;101938.12;1702570;83;21054;-91
2022/10/21 01:45:36;;;;;;;3.20;1.25;;;;;;;20.85;37.11;101938.12;1703351;82;21098;-91
2022/10/21 01:48:07;;;;;;;2.67;1.40;;;;;;;20.84;37.08;101935.91;1703103;82;21046;-91
2022/10/21 01:50:37;;;;;;;2.25;1.50;;;;;;;20.85;37.09;101945.03;1702664;82;20988;-91
2022/10/21 01:53:07;;;;;;;1.82;1.07;;;;;;;20.83;37.10;101943.13;1703778;82;21077;-90
2022/10/21 01:55:33;;;;;;;1.80;1.22;;;;;;;20.83;37.09;101950.88;1701943;82;21030;-91
2022/10/21 01:58:08;;;;;;;2.42;1.30;;;;;;;20.84;37.09;101953.05;1676233;84;21085;-90
2022/10/21 02:00:35;;;;;;;2.37;1.40;;;;;;;20.84;37.08;101950.29;1672853;85;21502;-89
2022/10/21 02:03:02;;;;;;;2.25;1.32;;;;;;;20.84;37.09;101953.05;1672470;84;21061;-88
2022/10/21 02:05:30;;;;;;;2.05;1.30;;;;;;;20.83;37.08;101948.11;1672863;84;21102;-90
2022/10/21 02:07:56;;;;;;;2.40;1.22;;;;;;;20.84;37.04;101953.88;1672734;84;21078;-90
2022/10/21 02:10:23;;;;;;;1.87;1.27;;;;;;;20.84;37.03;101949.73;1653328;85;21074;-90
2022/10/21 02:12:50;;;;;;;1.82;1.25;;;;;;;20.84;37.02;101953.88;1672851;84;21279;-90
2022/10/21 02:15:17;;;;;;;2.10;1.35;;;;;;;20.84;36.99;101949.73;1672812;84;21497;-91
2022/10/21 02:17:56;;;;;;;4.85;1.40;;;;;;;20.84;36.99;101946.97;1653454;85;21527;-90
2022/10/21 02:20:24;;;;;;;2.80;1.17;;;;;;;20.85;36.97;101951.95;1672721;84;21105;-91
2022/10/21 02:22:50;;;;;;;3.58;1.47;;;;;;;20.84;36.95;101948.35;1672484;84;21062;-91
2022/10/21 02:25:22;;;;;;;2.45;1.30;;;;;;;20.83;36.93;101946.73;1672579;84;21042;-91
2022/10/21 02:27:48;;;;;;;2.20;1.30;;;;;;;20.84;36.91;101950.29;1653401;85;21094;-90
2022/10/21 02:30:15;;;;;;;2.47;1.20;;;;;;;20.84;36.90;101952.50;1672560;84;21119;-91
2022/10/21 02:32:47;;;;;;;2.62;1.07;;;;;;;20.84;36.89;101953.05;1672756;84;21164;-91
2022/10/21 02:35:37;;;;;;;4.55;1.20;;;;;;;20.83;36.86;101956.41;1685388;83;21125;-88
2022/10/21 02:38:09;;;;;;;2.90;1.27;;;;;;;20.82;36.89;101961.66;1700993;83;21043;-92
2022/10/21 02:40:48;;;;;;;2.45;1.17;;;;;;;20.83;36.89;101966.64;1701101;83;21026;-90
2022/10/21 02:43:30;;;;;;;1.80;1.40;;;;;;;20.82;36.89;101956.13;1700828;83;21220;-89
2022/10/21 02:46:08;;;;;;;2.15;1.37;;;;;;;20.82;36.87;101960.28;1700838;83;21129;-90
2022/10/21 02:48:36;;;;;;;3.15;1.40;;;;;;;20.82;36.86;101964.98;1680541;84;21548;-92
2022/10/21 02:51:03;;;;;;;2.52;1.32;;;;;;;20.81;36.85;101963.33;1701417;83;21106;-90
2022/10/21 02:53:29;;;;;;;2.15;1.30;;;;;;;20.80;36.86;101969.97;1701078;83;21039;-91
2022/10/21 02:55:56;;;;;;;2.52;1.20;;;;;;;20.80;36.84;101970.80;1701818;83;21162;-90
2022/10/21 02:58:22;;;;;;;2.42;1.10;;;;;;;20.80;36.86;101973.56;1703114;82;21521;-90
2022/10/21 03:00:49;;;;;;;2.90;1.40;;;;;;;20.79;36.85;101974.67;1682086;84;21138;-91
2022/10/21 03:03:15;;;;;;;2.25;1.25;;;;;;;20.80;36.83;101974.12;1681904;84;21418;-91
2022/10/21 03:05:41;;;;;;;2.10;1.12;;;;;;;20.81;36.84;101978.54;1703305;82;21045;-90
2022/10/21 03:08:08;;;;;;;2.02;1.20;;;;;;;20.80;36.80;101977.71;1703525;82;21272;-90
2022/10/21 03:10:34;;;;;;;2.37;1.12;;;;;;;20.80;36.81;101969.41;1703127;83;21625;-90
2022/10/21 03:13:01;;;;;;;3.87;1.40;;;;;;;20.80;36.80;101972.18;1682037;82;21089;-89
2022/10/21 03:15:27;;;;;;;3.08;1.45;;;;;;;20.80;36.81;101958.35;1682228;83;21062;-90
2022/10/21 03:17:59;;;;;;;2.20;1.40;;;;;;;20.80;36.77;101964.44;1703329;82;21114;-90
2022/10/21 03:20:25;;;;;;;2.33;1.22;;;;;;;20.79;36.77;101966.38;1682865;83;21342;-89
2022/10/21 03:22:52;;;;;;;1.80;0.95;;;;;;;20.80;36.72;101957.52;1703418;82;21018;-91
2022/10/21 03:25:18;;;;;;;2.22;1.40;;;;;;;20.79;36.72;101952.55;1703187;82;21565;-90
2022/10/21 03:27:44;;;;;;;2.20;1.22;;;;;;;20.80;36.71;101955.59;1682273;84;21042;-92
2022/10/21 03:30:11;;;;;;;2.35;1.30;;;;;;;20.79;36.72;101955.31;1703481;82;21010;-88
2022/10/21 03:32:37;;;;;;;2.33;1.12;;;;;;;20.79;36.70;101958.66;1703083;82;21149;-91
2022/10/21 03:35:04;;;;;;;2.12;1.30;;;;;;;20.79;36.70;101963.61;1703410;82;21073;-91
2022/10/21 03:37:31;;;;;;;3.60;1.27;;;;;;;20.79;36.70;101959.46;1703391;82;21018;-91
2022/10/21 03:39:57;;;;;;;2.47;1.30;;;;;;;20.78;36.68;101957.84;1703113;82;21102;-90
2022/10/21 03:42:24;;;;;;;1.85;1.30;;;;;;;20.78;36.68;101962.53;1703316;82;21086;-92
2022/10/21 03:44:50;;;;;;;3.17;1.27;;;;;;;20.78;36.70;101962.53;1703503;82;21555;-91
2022/10/21 03:47:16;;;;;;;3.35;1.30;;;;;;;20.78;36.65;101959.22;1709584;82;21039;-92
2022/10/21 03:49:43;;;;;;;1.82;1.10;;;;;;;20.77;36.66;101964.48;1703860;82;21061;-92
2022/10/21 03:52:09;;;;;;;2.15;1.30;;;;;;;20.77;36.64;101952.03;1686039;84;21133;-92
2022/10/21 03:54:35;;;;;;;2.85;1.12;;;;;;;20.77;36.64;101947.88;1653827;85;21507;-91
2022/10/21 03:57:02;;;;;;;2.00;1.45;;;;;;;20.77;36.67;101952.03;1673446;83;21947;-91
2022/10/21 03:59:28;;;;;;;2.10;1.15;;;;;;;20.77;36.67;101941.52;1674314;84;21053;-91
2022/10/21 04:01:54;;;;;;;2.60;1.30;;;;;;;20.77;36.58;101942.34;1675118;85;21066;-91
2022/10/21 04:04:21;;;;;;;1.65;1.05;;;;;;;20.77;36.54;101933.22;1675097;84;21054;-87
2022/10/21 04:06:47;;;;;;;2.00;1.10;;;;;;;20.76;36.53;101942.07;1674757;84;21084;-89
2022/10/21 04:09:13;;;;;;;2.62;1.10;;;;;;;20.76;36.49;101943.45;1674960;84;21139;-89
2022/10/21 04:11:40;;;;;;;1.72;1.07;;;;;;;20.77;36.52;101942.91;1654205;84;21591;-88
2022/10/21 04:14:06;;;;;;;2.15;1.20;;;;;;;20.76;36.48;101944.84;1676270;84;21109;-88
2022/10/21 04:16:33;;;;;;;2.72;1.30;;;;;;;20.76;36.47;101934.33;1691173;83;21074;-88
2022/10/21 04:19:00;;;;;;;2.15;1.20;;;;;;;20.77;36.47;101938.75;1688408;82;21077;-88
2022/10/21 04:21:26;;;;;;;2.77;1.15;;;;;;;20.77;36.51;101940.14;1700563;84;21188;-90
2022/10/21 04:23:52;;;;;;;2.75;1.35;;;;;;;20.76;36.52;101934.33;1705717;82;21536;-89
2022/10/21 04:26:19;;;;;;;2.20;1.20;;;;;;;20.76;36.52;101940.69;1695410;81;21093;-88
2022/10/21 04:28:45;;;;;;;3.67;1.50;;;;;;;20.77;36.51;101944.28;1703202;82;21014;-88
2022/10/21 04:31:11;;;;;;;3.75;1.30;;;;;;;20.76;36.53;101946.78;1703428;83;21633;-88
2022/10/21 04:33:38;;;;;;;6.20;1.50;;;;;;;20.75;36.59;101947.33;1688455;84;21278;-89
2022/10/21 04:36:05;;;;;;;2.20;1.10;;;;;;;20.75;36.55;101936.27;1682843;84;21070;-89
2022/10/21 04:38:31;;;;;;;4.80;1.20;;;;;;;20.75;36.56;101941.00;1682985;83;21030;-88
2022/10/21 04:41:00;;;;;;;2.10;1.27;;;;;;;20.75;36.55;101942.39;1696394;82;21071;-88
2022/10/21 04:43:26;;;;;;;3.77;1.27;;;;;;;20.74;36.56;101936.02;1676884;84;21080;-90
2022/10/21 04:45:53;;;;;;;6.58;1.95;;;;;;;20.73;36.54;101937.69;1677274;84;21233;-90
2022/10/21 04:48:22;;;;;;;5.35;1.32;;;;;;;20.75;36.50;101935.47;1702297;82;21089;-83
2022/10/21 04:50:51;;;;;;;7.12;1.22;;;;;;;20.78;36.44;101934.87;1695790;82;21093;-89
2022/10/21 04:53:17;;;;;;;7.03;1.60;;;;;;;20.81;36.33;101940.65;1684434;83;21045;-95
2022/10/21 04:55:44;;;;;;;9.15;1.90;;;;;;;20.84;36.23;101940.05;1687838;82;21092;-88
2022/10/21 04:58:10;;;;;;;18.07;2.85;;;;;;;20.90;36.20;101940.28;1691846;82;21172;-92
2022/10/21 05:00:37;;;;;;;14.28;2.52;;;;;;;20.94;36.10;101947.44;1694598;82;21519;-92
2022/10/21 05:03:03;;;;;;;8.73;2.05;;;;;;;20.98;35.97;101935.49;1691905;82;21826;-91
2022/10/21 05:05:29;;;;;;;12.60;2.33;;;;;;;21.06;35.89;101940.94;1696633;82;21125;-92
2022/10/21 05:07:56;;;;;;;14.53;2.25;;;;;;;21.14;35.73;101938.11;1701068;82;21568;-93
2022/10/21 05:10:24;;;;;;;10.13;2.37;;;;;;;21.22;35.60;101945.77;1696228;82;21651;-91
2022/10/21 05:12:50;;;;;;;7.35;1.75;;;;;;;21.30;35.54;101945.14;1710680;82;22051;-91
2022/10/21 05:15:19;;;;;;;8.83;2.20;;;;;;;21.42;35.54;101948.31;1679364;83;21162;-91
2022/10/21 05:17:45;;;;;;;7.33;2.20;;;;;;;21.52;35.45;101943.19;1699171;82;21501;-89
2022/10/21 05:20:12;;;;;;;10.32;2.37;;;;;;;21.62;35.38;101956.36;1682840;82;21053;-88
2022/10/21 05:22:38;;;;;;;13.30;3.08;;;;;;;21.73;35.31;101959.24;1699082;81;21305;-92
2022/10/21 05:25:05;;;;;;;5.75;2.52;;;;;;;21.83;35.21;101955.52;1694694;82;21087;-87
2022/10/21 05:27:31;;;;;;;10.70;3.60;;;;;;;21.94;35.11;101959.81;1685483;84;21128;-89
2022/10/21 05:29:57;;;;;;;14.47;4.03;;;;;;;22.07;35.00;101966.55;1677266;83;21592;-89
2022/10/21 05:32:24;;;;;;;10.78;3.92;;;;;;;22.15;34.89;101962.55;1698155;82;20979;-91
2022/10/21 05:34:50;;;;;;;12.10;4.50;;;;;;;22.23;34.85;101965.23;1696230;82;21720;-89
2022/10/21 05:37:17;;;;;;;17.25;4.47;;;;;;;22.32;34.75;101964.78;1688475;82;21101;-92
2022/10/21 05:39:43;;;;;;;10.13;5.25;;;;;;;22.39;34.70;101969.95;1668494;82;21626;-91
2022/10/21 05:42:09;;;;;;;16.57;5.92;;;;;;;22.48;34.65;101969.54;1691805;81;21061;-91
2022/10/21 05:44:35;;;;;;;10.95;5.28;;;;;;;22.54;34.56;101973.30;1676226;82;21046;-91
2022/10/21 05:47:03;;;;;;;11.45;5.75;;;;;;;22.64;34.53;101975.08;1696666;81;21691;-86
2022/10/21 05:49:30;;;;;;;13.85;5.25;;;;;;;22.73;34.52;101981.63;1689840;81;21053;-85
2022/10/21 05:51:56;;;;;;;17.30;5.08;;;;;;;22.77;34.52;101984.05;1691034;82;21731;-87
2022/10/21 05:54:23;;;;;;;22.30;5.25;;;;;;;22.79;34.53;101980.98;1691459;82;21093;-89
2022/10/21 05:56:49;;;;;;;17.57;6.42;;;;;;;22.79;34.55;101990.09;1688750;81;21070;-87
2022/10/21 05:59:15;;;;;;;13.13;5.12;;;;;;;22.81;34.63;101982.87;1694984;82;21149;-86
2022/10/21 06:01:42;;;;;;;30.62;5.25;;;;;;;22.82;34.71;101983.14;1691959;82;21519;-92
2022/10/21 06:04:08;;;;;;;22.75;5.40;;;;;;;22.84;34.78;101987.24;1679979;83;21476;-89
2022/10/21 06:06:34;;;;;;;21.55;5.37;;;;;;;22.87;34.84;101984.44;1687810;82;21136;-91
2022/10/21 06:09:01;;;;;;;12.58;5.10;;;;;;;22.93;34.89;101986.80;1700985;82;21651;-92
2022/10/21 06:11:27;;;;;;;20.80;4.85;;;;;;;22.98;34.92;101989.50;1684040;83;21608;-92
2022/10/21 06:13:54;;;;;;;20.17;5.47;;;;;;;23.02;34.97;101989.70;1691117;82;21243;-88
2022/10/21 06:16:20;;;;;;;19.27;5.65;;;;;;;23.03;35.02;101986.63;1684834;82;21639;-91
2022/10/21 06:18:46;;;;;;;16.12;5.33;;;;;;;23.06;35.06;101981.02;1699542;82;21631;-91
2022/10/21 06:21:13;;;;;;;24.85;5.53;;;;;;;23.06;35.07;101981.84;1684501;84;21038;-91
2022/10/21 06:23:39;;;;;;;17.73;6.62;;;;;;;23.06;35.10;101981.02;1690793;82;21197;-91
2022/10/21 06:26:14;;;;;;;11.70;5.25;;;;;;;23.04;35.14;101988.25;1696606;82;21089;-90
2022/10/21 06:28:43;;;;;;;17.92;6.00;;;;;;;23.02;35.20;101987.75;1699381;82;22134;-87
2022/10/21 06:31:16;;;;;;;15.25;6.10;;;;;;;23.00;35.23;101988.61;1696040;82;21053;-87
2022/10/21 06:33:42;;;;;;;17.10;6.25;;;;;;;22.98;35.25;101987.28;1699566;82;121442;-76
2022/10/21 06:36:09;;;;;;;16.45;6.50;;;;;;;22.96;35.33;101995.89;1687382;82;21329;-82
2022/10/21 06:38:36;;;;;;;14.93;6.92;;;;;;;22.93;35.45;101993.74;1680532;83;21063;-78
2022/10/21 06:41:09;;;;;;;11.28;6.53;;;;;;;22.90;35.50;102001.30;1678408;83;21056;-78
2022/10/21 06:43:35;;;;;;;12.60;6.03;;;;;;;22.87;35.61;102001.09;1680532;83;21391;-80
2022/10/21 06:46:04;;;;;;;20.00;6.55;;;;;;;22.84;35.72;102001.67;1675623;83;21135;-77
2022/10/21 06:48:30;;;;;;;29.07;7.40;;;;;;;22.81;35.84;102007.28;1701672;80;21161;-77
2022/10/21 06:51:01;;;;;;;36.40;7.62;;;;;;;22.78;35.82;101997.36;1709492;82;21092;-77
2022/10/21 06:53:27;;;;;;;30.95;6.75;;;;;;;22.71;35.92;101994.95;1668339;82;21308;-76
2022/10/21 06:56:04;;;;;;;30.85;6.15;;;;;;;22.63;35.96;102000.61;1653781;84;21065;-78
2022/10/21 06:58:30;;;;;;;33.25;6.42;;;;;;;22.58;36.10;102007.62;1654369;84;21128;-80
2022/10/21 07:00:57;;;;;;;27.58;5.85;;;;;;;22.53;36.23;102002.15;1671499;84;22131;-78
2022/10/21 07:03:26;;;;;;;28.65;5.50;;;;;;;22.50;36.37;101997.77;1667153;82;21531;-76
2022/10/21 07:05:58;;;;;;;25.32;5.67;;;;;;;22.47;36.52;101992.28;1665646;83;21216;-77
2022/10/21 07:08:26;;;;;;;16.52;5.37;;;;;;;22.46;36.67;101989.80;1712012;82;21089;-79
2022/10/21 07:10:53;;;;;;;15.55;5.28;;;;;;;22.44;36.75;101994.28;1711152;82;21130;-76
2022/10/21 07:13:20;;;;;;;36.20;6.83;;;;;;;22.43;36.76;101996.78;1708858;82;21873;-76
2022/10/21 07:15:47;;;;;;;26.82;6.17;;;;;;;22.41;36.89;101996.25;1720184;80;21044;-76
2022/10/21 07:18:14;;;;;;;21.25;6.67;;;;;;;22.37;36.96;101993.81;1704660;82;21061;-76
2022/10/21 07:20:40;;;;;;;19.42;5.80;;;;;;;22.36;37.07;101996.91;1716226;82;21660;-77
2022/10/21 07:23:06;;;;;;;18.32;5.72;;;;;;;22.34;37.13;101991.66;1712994;82;21072;-81
2022/10/21 07:25:33;;;;;;;18.82;5.95;;;;;;;22.31;37.20;101988.94;1661325;84;21133;-77
2022/10/21 07:27:59;;;;;;;20.12;6.70;;;;;;;22.30;37.25;101993.38;1685789;82;21042;-79
2022/10/21 07:30:25;;;;;;;17.87;6.72;;;;;;;22.26;37.22;101988.18;1708470;81;21115;-80
2022/10/21 07:32:52;;;;;;;16.67;6.87;;;;;;;22.23;37.17;101996.55;1719954;81;21221;-78
2022/10/21 07:35:18;;;;;;;22.15;6.78;;;;;;;22.22;37.13;101995.45;1722428;81;21095;-82
2022/10/21 07:37:44;;;;;;;21.10;6.65;;;;;;;22.18;37.10;101992.45;1729267;80;22161;-83
2022/10/21 07:40:11;;;;;;;25.15;7.22;;;;;;;22.17;37.22;101989.97;1641879;83;21086;-80
2022/10/21 07:42:37;;;;;;;23.42;7.35;;;;;;;22.14;37.35;101991.97;1682784;83;21155;-79
2022/10/21 07:45:05;;;;;;;18.05;7.40;;;;;;;22.11;37.22;101984.23;1725064;81;21106;-84
2022/10/21 07:47:31;;;;;;;22.98;7.80;;;;;;;22.08;37.20;101983.45;1724716;80;21095;-80
2022/10/21 07:49:57;;;;;;;22.62;6.85;;;;;;;22.04;37.25;101987.95;1727060;81;21268;-82
2022/10/21 07:52:24;;;;;;;24.27;5.62;;;;;;;22.00;37.15;101984.12;1723808;81;21079;-81
2022/10/21 07:54:50;;;;;;;17.05;5.55;;;;;;;21.95;37.00;101975.87;1708631;82;21570;-81
2022/10/21 07:57:17;;;;;;;18.82;5.50;;;;;;;21.89;36.76;101977.89;1721282;81;21501;-82
2022/10/21 07:59:43;;;;;;;16.37;5.17;;;;;;;21.82;36.73;101980.17;1725345;81;21082;-77
2022/10/21 08:02:13;;;;;;;19.15;5.15;;;;;;;21.77;36.52;101972.76;1724578;81;21161;-83
2022/10/21 08:04:40;;;;;;;18.15;5.22;;;;;;;21.74;36.45;101968.38;1718561;81;21095;-79
2022/10/21 08:07:06;;;;;;;18.60;5.12;;;;;;;21.72;36.26;101960.39;1723883;81;21127;-78
2022/10/21 08:09:33;;;;;;;16.27;4.97;;;;;;;21.70;36.22;101962.62;1729921;80;21089;-77
2022/10/21 08:12:00;;;;;;;17.60;5.10;;;;;;;21.68;36.22;101964.05;1723313;81;21678;-77
2022/10/21 08:14:26;;;;;;;18.90;4.95;;;;;;;21.68;36.25;101970.97;1733667;80;21966;-77
2022/10/21 08:16:53;;;;;;;16.85;5.03;;;;;;;21.68;36.29;101971.80;1723028;81;22157;-76
2022/10/21 08:19:22;;;;;;;23.80;5.45;;;;;;;21.69;36.32;101973.42;1725876;81;21161;-76
2022/10/21 08:21:49;;;;;;;15.35;4.78;;;;;;;21.70;36.41;101969.54;1724041;81;21055;-76
2022/10/21 08:24:15;;;;;;;13.62;4.95;;;;;;;21.72;36.53;101965.10;1718319;81;21048;-77
2022/10/21 08:26:42;;;;;;;20.32;5.50;;;;;;;21.73;36.63;101959.80;1720804;81;21734;-77
2022/10/21 08:29:08;;;;;;;17.60;5.30;;;;;;;21.74;36.72;101959.52;1726609;81;21225;-78
2022/10/21 08:31:36;;;;;;;20.12;5.22;;;;;;;21.75;36.75;101956.19;1723683;81;33305;-77
2022/10/21 08:34:02;;;;;;;11.05;4.62;;;;;;;21.74;36.72;101952.59;1737831;80;21050;-75
2022/10/21 08:36:29;;;;;;;20.80;5.33;;;;;;;21.72;36.53;101954.84;1727069;81;21134;-79
2022/10/21 08:38:57;;;;;;;16.60;4.95;;;;;;;21.70;36.23;101952.09;1668021;84;21001;-80
2022/10/21 08:41:32;;;;;;;18.67;4.65;;;;;;;21.68;36.09;101953.80;1735980;81;21110;-80
2022/10/21 08:44:05;;;;;;;11.57;5.10;;;;;;;21.66;35.93;101960.17;1744487;81;21095;-80
2022/10/21 08:46:43;;;;;;;25.70;4.28;;;;;;;21.66;35.92;101959.35;1739141;80;21636;-78
2022/10/21 08:49:21;;;;;;;25.15;6.30;;;;;;;21.64;35.70;101951.33;1739260;80;21934;-80
2022/10/21 08:51:58;;;;;;;24.72;5.10;;;;;;;21.65;36.58;101957.14;1741760;80;21536;-81
2022/10/21 08:54:48;;;;;;;23.25;4.60;;;;;;;21.64;36.58;101962.99;1712740;81;21106;-81
2022/10/21 08:57:21;;;;;;;34.50;5.33;;;;;;;21.60;36.46;101960.55;1727183;79;21095;-80
2022/10/21 08:59:47;;;;;;;24.55;4.20;;;;;;;21.56;36.35;101964.45;1743007;80;21086;-79
2022/10/21 09:02:25;;;;;;;29.75;5.47;;;;;;;21.54;36.14;101954.25;1743504;80;21138;-80
2022/10/21 09:04:57;;;;;;;20.43;5.12;;;;;;;21.51;36.00;101960.95;1742326;79;21088;-81
2022/10/21 09:07:44;;;;;;;22.70;4.95;;;;;;;21.49;36.28;101958.46;1734938;80;21138;-81
2022/10/21 09:10:18;;;;;;;21.77;4.97;;;;;;;21.47;36.40;101955.73;1734567;80;21663;-81
2022/10/21 09:13:13;;;;;;;21.57;4.47;;;;;;;21.47;36.42;101956.56;1736444;79;22135;-79
2022/10/21 09:16:02;;;;;;;22.73;4.95;;;;;;;21.48;36.47;101949.88;1747525;80;21063;-81
2022/10/21 09:19:04;;;;;;;19.60;4.40;;;;;;;21.47;36.47;101946.05;1748512;81;22744;-80
2022/10/21 09:22:06;;;;;;;13.38;5.30;;;;;;;21.50;36.46;101945.44;1741740;80;21137;-82
2022/10/21 09:24:52;;;;;;;16.50;4.10;;;;;;;21.50;36.47;101946.27;1626786;85;21182;-80
2022/10/21 09:27:19;;;;;;;15.00;4.20;;;;;;;21.48;36.44;101937.42;1723350;80;21169;-80
2022/10/21 09:29:59;;;;;;;9.75;3.77;;;;;;;21.49;36.39;101935.48;1729584;80;21133;-81
2022/10/21 09:32:38;;;;;;;24.82;5.72;;;;;;;21.47;36.29;101931.64;1721524;81;21983;-81
2022/10/21 09:35:42;;;;;;;10.28;4.00;;;;;;;21.46;36.19;101925.83;1720830;81;21557;-80
2022/10/21 09:38:31;;;;;;;17.67;4.30;;;;;;;21.45;36.09;101933.05;1684741;83;21646;-80
2022/10/21 09:41:02;;;;;;;5.58;3.33;;;;;;;21.44;36.06;101933.59;1726272;81;21091;-80
2022/10/21 09:43:26;;;;;;;9.33;3.37;;;;;;;21.43;35.90;101923.64;1728956;81;21107;-79
2022/10/21 09:45:53;;;;;;;10.58;3.55;;;;;;;21.45;35.79;101927.50;1725894;81;21127;-80
2022/10/21 09:48:40;;;;;;;12.65;3.98;;;;;;;21.43;35.75;101925.84;1739202;81;21056;-80
2022/10/21 09:51:19;;;;;;;11.20;3.70;;;;;;;21.41;35.48;101914.27;1718121;81;21071;-81
2022/10/21 09:53:55;;;;;;;25.08;4.92;;;;;;;21.38;35.27;101910.71;1732083;80;21068;-83
2022/10/21 09:56:32;;;;;;;19.52;3.62;;;;;;;21.36;35.17;101909.34;1683594;83;21238;-82
2022/10/21 09:59:13;;;;;;;17.75;4.28;;;;;;;21.34;35.22;101901.32;1712070;81;21233;-82
2022/10/21 10:01:40;;;;;;;;;;;;;;;21.34;35.22;101894.98;1730653;82;21291;-82
2022/10/21 10:04:30;;;;;;;17.82;3.95;;;;;;;21.30;35.31;101888.40;1732402;81;20903;-82
2022/10/21 10:07:04;;;;;;;22.65;3.67;;;;;;;21.30;35.22;101886.42;1684990;83;21643;-81
2022/10/21 10:09:32;;;;;;;16.80;3.65;;;;;;;21.29;35.14;101880.66;1720420;81;21063;-81
2022/10/21 10:12:17;;;;;;;20.30;5.03;;;;;;;21.30;35.29;101878.71;1705981;81;21548;-84
2022/10/21 10:14:45;;;;;;;11.20;2.80;;;;;;;21.29;35.32;101866.81;1729647;81;21064;-82
2022/10/21 10:17:32;;;;;;;18.42;3.08;;;;;;;21.29;35.20;101865.98;1731593;81;21088;-81
2022/10/21 10:20:15;;;;;;;4.47;2.45;;;;;;;21.28;35.18;101868.48;1726555;81;21063;-82
2022/10/21 10:23:07;;;;;;;9.90;3.12;;;;;;;21.26;35.09;101865.20;1738110;81;21052;-81
2022/10/21 10:25:36;;;;;;;11.35;2.72;;;;;;;21.26;35.12;101862.44;1736599;81;21564;-84
2022/10/21 10:28:14;;;;;;;7.65;2.80;;;;;;;21.25;35.03;101852.48;1703682;81;21098;-79
2022/10/21 10:30:46;;;;;;;13.18;2.87;;;;;;;21.26;35.26;101843.85;1724210;81;21310;-81
2022/10/21 10:33:22;;;;;;;16.85;2.98;;;;;;;21.28;35.26;101839.42;1736602;80;21205;-81
2022/10/21 10:35:53;;;;;;;8.43;2.65;;;;;;;21.28;35.00;101841.62;1716661;81;21048;-82
2022/10/21 10:38:24;;;;;;;8.60;2.70;;;;;;;21.26;34.83;101839.70;1722563;81;21616;-80
2022/10/21 10:40:51;;;;;;;8.13;2.80;;;;;;;21.25;34.73;101829.77;1677987;83;21079;-82
2022/10/21 10:43:29;;;;;;;8.98;2.67;;;;;;;21.25;34.65;101828.95;1741678;81;20991;-80
2022/10/21 10:46:06;;;;;;;6.15;2.75;;;;;;;21.25;34.58;101828.95;1729202;81;21722;-82
2022/10/21 10:48:45;;;;;;;8.00;2.83;;;;;;;21.24;34.51;101820.37;1732748;81;21067;-83
2022/10/21 10:51:32;;;;;;;5.75;2.27;;;;;;;21.23;34.44;101825.08;1713122;81;21146;-81
2022/10/21 10:54:20;;;;;;;12.73;3.27;;;;;;;21.22;34.33;101823.43;1724364;81;21622;-80
2022/10/21 10:57:12;;;;;;;6.50;2.67;;;;;;;21.20;34.28;101816.55;1681075;84;21067;-80
2022/10/21 10:59:55;;;;;;;19.52;2.75;;;;;;;21.19;34.43;101819.05;1716660;81;21106;-80
2022/10/21 11:02:42;;;;;;;20.70;3.92;;;;;;;21.19;34.58;101811.58;1678221;83;21022;-81
2022/10/21 11:05:37;;;;;;;16.62;2.98;;;;;;;21.20;34.59;101808.25;1731439;81;21608;-80
2022/10/21 11:08:27;;;;;;;14.15;3.05;;;;;;;21.18;34.82;101807.16;1738145;80;21274;-80
2022/10/21 11:11:01;;;;;;;14.10;3.15;;;;;;;21.20;35.09;101808.25;1703080;82;21496;-80
2022/10/21 11:13:28;;;;;;;19.00;3.70;;;;;;;21.20;35.30;101805.48;1700852;81;21072;-80
2022/10/21 11:16:29;;;;;;;20.05;3.30;;;;;;;21.21;35.43;101800.22;1721779;81;21899;-83
2022/10/21 11:19:10;;;;;;;16.20;3.08;;;;;;;21.22;35.58;101800.46;1720617;81;21246;-78
2022/10/21 11:21:45;;;;;;;;;;;;;;;21.24;35.77;101803.21;1717540;82;21079;-76
2022/10/21 11:24:20;;;;;;;18.05;3.22;;;;;;;21.25;35.79;101792.97;1719363;81;20497;-76
2022/10/21 11:27:17;;;;;;;12.40;3.22;;;;;;;21.23;35.75;101785.51;1686927;83;21094;-75
2022/10/21 11:30:04;;;;;;;9.30;3.42;;;;;;;21.23;35.81;101788.28;1728843;81;21098;-77
2022/10/21 11:33:10;;;;;;;20.52;3.17;;;;;;;21.24;35.86;101785.78;1722483;82;21042;-76
2022/10/21 11:35:58;;;;;;;21.62;3.45;;;;;;;21.24;35.91;101783.02;1725203;81;21087;-77
2022/10/21 11:38:53;;;;;;;12.78;2.77;;;;;;;21.23;35.92;101768.91;1735171;81;21061;-76
2022/10/21 11:41:44;;;;;;;10.20;2.75;;;;;;;21.23;36.05;101765.58;1735106;80;21035;-77
2022/10/21 11:44:40;;;;;;;11.40;2.85;;;;;;;21.25;36.03;101765.29;1725474;81;27146;-77